createdAt,value
2022-10-18T00:01:09.311Z,14.87
2022-10-18T00:06:15.119Z,14.87
2022-10-18T00:08:42.637Z,14.85
2022-10-18T00:11:10.451Z,14.89
2022-10-18T00:13:38.690Z,14.86
2022-10-18T00:16:13.657Z,14.87
2022-10-18T00:18:42.120Z,14.85
2022-10-18T00:21:14.703Z,14.83
2022-10-18T00:23:42.610Z,14.81
2022-10-18T00:26:20.467Z,14.76
2022-10-18T00:28:53.183Z,14.73
2022-10-18T00:31:29.432Z,14.71
2022-10-18T00:34:11.178Z,14.67
2022-10-18T00:36:39.469Z,14.62
2022-10-18T00:39:09.466Z,14.64
2022-10-18T00:41:38.218Z,14.61
2022-10-18T00:44:14.349Z,14.59
2022-10-18T00:47:20.721Z,14.63
2022-10-18T00:49:56.842Z,14.61
2022-10-18T00:52:38.398Z,14.63
2022-10-18T00:55:07.856Z,14.63
2022-10-18T00:57:36.687Z,14.61
2022-10-18T01:00:09.878Z,14.63
2022-10-18T01:02:40.078Z,14.65
2022-10-18T01:05:08.720Z,14.68
2022-10-18T01:08:22.065Z,14.67
2022-10-18T01:11:21.917Z,14.65
2022-10-18T01:14:23.452Z,14.65
2022-10-18T01:16:54.172Z,14.63
2022-10-18T01:19:58.659Z,14.62
2022-10-18T01:22:42.301Z,14.57
2022-10-18T01:25:51.229Z,14.53
2022-10-18T01:29:16.774Z,14.50
2022-10-18T01:32:10.469Z,14.45
2022-10-18T01:34:40.548Z,14.40
2022-10-18T01:37:14.387Z,14.38
2022-10-18T01:39:46.726Z,14.38
2022-10-18T01:42:19.711Z,14.35
2022-10-18T01:44:50.696Z,14.33
2022-10-18T01:47:19.698Z,14.32
2022-10-18T01:49:47.425Z,14.29
2022-10-18T01:52:16.775Z,14.26
2022-10-18T01:54:49.240Z,14.25
2022-10-18T01:57:45.860Z,14.20
2022-10-18T02:00:30.247Z,14.19
2022-10-18T02:03:30.060Z,14.19
2022-10-18T02:06:28.964Z,14.16
2022-10-18T02:09:29.060Z,14.15
2022-10-18T02:11:58.399Z,14.12
2022-10-18T02:14:26.869Z,14.08
2022-10-18T02:17:00.128Z,14.07
2022-10-18T02:19:40.528Z,14.06
2022-10-18T02:22:10.878Z,14.02
2022-10-18T02:24:44.853Z,14.01
2022-10-18T02:27:13.260Z,13.99
2022-10-18T02:29:42.725Z,14.00
2022-10-18T02:32:41.114Z,14.02
2022-10-18T02:35:19.410Z,14.02
2022-10-18T02:37:50.220Z,14.05
2022-10-18T02:40:18.289Z,14.05
2022-10-18T02:42:51.355Z,14.03
2022-10-18T02:45:19.089Z,14.01
2022-10-18T02:47:47.168Z,14.04
2022-10-18T02:50:15.213Z,14.06
2022-10-18T02:52:42.937Z,14.07
2022-10-18T02:55:11.059Z,14.03
2022-10-18T02:57:38.797Z,14.03
2022-10-18T03:00:07.141Z,14.03
2022-10-18T03:02:35.250Z,14.05
2022-10-18T03:05:02.707Z,14.05
2022-10-18T03:07:30.826Z,14.05
2022-10-18T03:09:58.569Z,14.05
2022-10-18T03:12:26.407Z,14.05
2022-10-18T03:14:53.853Z,14.07
2022-10-18T03:17:21.693Z,14.04
2022-10-18T03:19:49.126Z,14.02
2022-10-18T03:22:16.874Z,13.99
2022-10-18T03:24:45.591Z,13.92
2022-10-18T03:27:13.366Z,13.88
2022-10-18T03:29:40.827Z,13.83
2022-10-18T03:32:08.703Z,13.81
2022-10-18T03:34:36.768Z,13.78
2022-10-18T03:37:05.600Z,13.73
2022-10-18T03:39:33.269Z,13.71
2022-10-18T03:42:00.949Z,13.72
2022-10-18T03:44:28.561Z,13.70
2022-10-18T03:46:56.228Z,13.68
2022-10-18T03:49:23.780Z,13.68
2022-10-18T03:51:51.518Z,13.66
2022-10-18T03:54:19.097Z,13.63
2022-10-18T03:56:46.945Z,13.62
2022-10-18T03:59:16.791Z,13.57
2022-10-18T04:01:44.557Z,13.50
2022-10-18T04:04:12.024Z,13.46
2022-10-18T04:06:39.829Z,13.42
2022-10-18T04:09:10.111Z,13.37
2022-10-18T04:11:38.379Z,13.32
2022-10-18T04:14:05.931Z,13.25
2022-10-18T04:16:33.844Z,13.20
2022-10-18T04:19:01.252Z,13.14
2022-10-18T04:21:28.962Z,13.10
2022-10-18T04:23:56.400Z,13.02
2022-10-18T04:26:24.207Z,12.96
2022-10-18T04:28:51.818Z,12.93
2022-10-18T04:31:19.595Z,12.88
2022-10-18T04:33:47.037Z,12.87
2022-10-18T04:36:15.022Z,12.84
2022-10-18T04:38:42.976Z,12.82
2022-10-18T04:41:11.108Z,12.75
2022-10-18T04:43:38.646Z,12.70
2022-10-18T04:46:06.598Z,12.67
2022-10-18T04:48:34.187Z,12.63
2022-10-18T04:51:01.924Z,12.61
2022-10-18T04:53:29.383Z,12.59
2022-10-18T04:55:57.262Z,12.61
2022-10-18T04:58:24.837Z,12.59
2022-10-18T05:00:52.728Z,12.58
2022-10-18T05:03:20.297Z,12.58
2022-10-18T05:06:01.704Z,12.61
2022-10-18T05:08:31.009Z,12.63
2022-10-18T05:10:59.196Z,12.68
2022-10-18T05:13:27.089Z,12.72
2022-10-18T05:15:54.866Z,12.88
2022-10-18T05:18:22.351Z,13.03
2022-10-18T05:20:50.033Z,13.16
2022-10-18T05:23:17.528Z,13.24
2022-10-18T05:25:45.306Z,13.31
2022-10-18T05:28:34.058Z,13.36
2022-10-18T05:31:05.977Z,13.34
2022-10-18T05:33:34.026Z,13.37
2022-10-18T05:36:02.114Z,13.32
2022-10-18T05:38:32.845Z,13.25
2022-10-18T05:41:04.556Z,13.19
2022-10-18T05:43:32.035Z,13.15
2022-10-18T05:46:00.033Z,13.13
2022-10-18T05:48:27.442Z,13.09
2022-10-18T05:50:59.541Z,13.12
2022-10-18T05:53:37.112Z,13.09
2022-10-18T05:56:07.291Z,13.09
2022-10-18T05:58:35.372Z,13.09
2022-10-18T06:01:05.372Z,13.09
2022-10-18T06:03:33.464Z,13.10
2022-10-18T06:06:10.802Z,13.18
2022-10-18T06:08:40.865Z,13.24
2022-10-18T06:11:14.957Z,13.36
2022-10-18T06:13:47.919Z,13.51
2022-10-18T06:16:19.320Z,13.65
2022-10-18T06:18:53.198Z,13.77
2022-10-18T06:21:22.552Z,13.86
2022-10-18T06:23:56.198Z,13.94
2022-10-18T06:26:25.705Z,14.05
2022-10-18T06:28:53.312Z,14.17
2022-10-18T06:31:21.408Z,14.26
2022-10-18T06:33:49.348Z,14.40
2022-10-18T06:36:22.087Z,14.47
2022-10-18T06:38:50.229Z,14.56
2022-10-18T06:41:19.361Z,14.70
2022-10-18T06:43:51.303Z,14.85
2022-10-18T06:46:19.422Z,14.98
2022-10-18T06:48:47.152Z,15.11
2022-10-18T06:51:15.429Z,15.22
2022-10-18T06:53:44.599Z,15.28
2022-10-18T06:56:21.240Z,15.37
2022-10-18T06:58:48.964Z,15.42
2022-10-18T07:01:18.740Z,15.49
2022-10-18T07:03:48.380Z,15.55
2022-10-18T07:06:18.766Z,15.64
2022-10-18T07:08:48.278Z,15.69
2022-10-18T07:11:19.889Z,15.74
2022-10-18T07:13:47.418Z,15.79
2022-10-18T07:16:18.631Z,15.83
2022-10-18T07:18:50.363Z,15.88
2022-10-18T07:21:24.697Z,15.94
2022-10-18T07:23:52.843Z,15.96
2022-10-18T07:26:30.210Z,16.00
2022-10-18T07:29:11.651Z,16.06
2022-10-18T07:31:40.947Z,16.10
2022-10-18T07:34:11.915Z,16.14
2022-10-18T07:36:40.557Z,16.22
2022-10-18T07:39:09.373Z,16.33
2022-10-18T07:41:37.269Z,16.42
2022-10-18T07:44:05.372Z,16.51
2022-10-18T07:46:33.383Z,16.60
2022-10-18T07:49:00.913Z,16.71
2022-10-18T07:51:30.917Z,16.73
2022-10-18T07:53:59.360Z,16.76
2022-10-18T07:56:27.096Z,16.80
2022-10-18T07:58:56.637Z,16.83
2022-10-18T08:01:25.986Z,16.87
2022-10-18T08:03:54.061Z,16.92
2022-10-18T08:06:23.385Z,16.92
2022-10-18T08:08:50.972Z,16.94
2022-10-18T08:11:25.038Z,17.00
2022-10-18T08:13:53.975Z,17.08
2022-10-18T08:16:40.031Z,17.15
2022-10-18T08:19:07.599Z,17.20
2022-10-18T08:21:35.334Z,17.26
2022-10-18T08:24:02.815Z,17.35
2022-10-18T08:26:30.547Z,17.45
2022-10-18T08:29:10.634Z,17.56
2022-10-18T08:31:45.630Z,17.66
2022-10-18T08:34:18.641Z,17.72
2022-10-18T08:36:47.480Z,17.77
2022-10-18T08:39:14.902Z,17.86
2022-10-18T08:42:17.675Z,18.00
2022-10-18T08:44:49.470Z,18.08
2022-10-18T08:47:31.327Z,18.15
2022-10-18T08:50:14.306Z,18.22
2022-10-18T08:53:04.794Z,18.27
2022-10-18T08:55:38.865Z,18.33
2022-10-18T08:58:26.690Z,18.39
2022-10-18T09:01:12.658Z,18.45
2022-10-18T09:04:27.976Z,18.54
2022-10-18T09:07:20.072Z,18.60
2022-10-18T09:10:07.160Z,18.65
2022-10-18T09:12:58.769Z,18.73
2022-10-18T09:15:45.061Z,18.80
2022-10-18T09:18:55.476Z,18.87
2022-10-18T09:21:55.328Z,19.00
2022-10-18T09:24:39.648Z,19.12
2022-10-18T09:27:20.243Z,19.18
2022-10-18T09:30:07.809Z,19.21
2022-10-18T09:33:14.276Z,19.27
2022-10-18T09:36:03.296Z,19.34
2022-10-18T09:38:49.609Z,19.42
2022-10-18T09:41:42.862Z,19.49
2022-10-18T09:44:22.222Z,19.53
2022-10-18T09:47:16.557Z,19.60
2022-10-18T09:49:51.056Z,19.68
2022-10-18T09:52:38.846Z,19.73
2022-10-18T09:55:16.897Z,19.77
2022-10-18T09:57:54.089Z,19.83
2022-10-18T10:00:31.461Z,19.85
2022-10-18T10:03:02.002Z,19.89
2022-10-18T10:05:29.771Z,19.95
2022-10-18T10:08:02.244Z,20.02
2022-10-18T10:10:31.839Z,20.08
2022-10-18T10:13:16.868Z,20.12
2022-10-18T10:15:56.358Z,20.17
2022-10-18T10:18:38.186Z,20.24
2022-10-18T10:21:15.817Z,20.27
2022-10-18T10:23:47.448Z,20.29
2022-10-18T10:26:29.436Z,20.35
2022-10-18T10:28:57.332Z,20.40
2022-10-18T10:31:24.971Z,20.45
2022-10-18T10:34:14.499Z,20.49
2022-10-18T10:36:52.241Z,20.54
2022-10-18T10:39:22.749Z,20.56
2022-10-18T10:41:56.994Z,20.61
2022-10-18T10:44:36.228Z,20.66
2022-10-18T10:47:04.831Z,20.73
2022-10-18T10:49:47.687Z,20.83
2022-10-18T10:52:28.326Z,20.94
2022-10-18T10:57:48.417Z,21.11
2022-10-18T11:00:44.341Z,21.20
2022-10-18T11:03:33.805Z,21.30
2022-10-18T11:06:02.116Z,21.41
2022-10-18T11:08:41.131Z,21.44
2022-10-18T11:11:26.781Z,21.51
2022-10-18T11:14:26.207Z,21.62
2022-10-18T11:17:21.988Z,21.73
2022-10-18T11:20:09.753Z,21.79
2022-10-18T11:22:56.890Z,21.88
2022-10-18T11:25:43.131Z,21.97
2022-10-18T11:28:40.920Z,22.08
2022-10-18T11:31:50.501Z,22.26
2022-10-18T11:34:25.631Z,22.38
2022-10-18T11:37:47.285Z,22.53
2022-10-18T11:40:45.161Z,22.69
2022-10-18T11:43:30.124Z,22.86
2022-10-18T11:46:13.873Z,23.03
2022-10-18T11:49:16.673Z,23.14
2022-10-18T11:52:13.843Z,23.30
2022-10-18T11:54:57.187Z,23.45
2022-10-18T11:57:55.643Z,23.64
2022-10-18T12:00:40.505Z,23.72
2022-10-18T12:03:38.929Z,23.81
2022-10-18T12:06:34.062Z,23.94
2022-10-18T12:09:37.010Z,24.06
2022-10-18T12:12:28.325Z,24.22
2022-10-18T12:15:22.825Z,24.32
2022-10-18T12:18:03.464Z,24.43
2022-10-18T12:20:50.201Z,24.60
2022-10-18T12:23:29.647Z,24.73
2022-10-18T12:26:03.898Z,24.98
2022-10-18T12:29:00.632Z,25.17
2022-10-18T12:32:08.841Z,25.30
2022-10-18T12:34:48.304Z,25.41
2022-10-18T12:37:36.610Z,25.54
2022-10-18T12:40:46.606Z,25.68
2022-10-18T12:43:37.685Z,25.95
2022-10-18T12:46:13.567Z,26.05
2022-10-18T12:48:45.750Z,26.18
2022-10-18T12:51:26.801Z,26.30
2022-10-18T12:54:02.953Z,26.37
2022-10-18T12:56:34.199Z,26.55
2022-10-18T12:59:16.259Z,27.06
2022-10-18T13:01:53.313Z,27.48
2022-10-18T13:04:32.422Z,27.71
2022-10-18T13:07:00.041Z,27.58
2022-10-18T13:09:36.964Z,27.73
2022-10-18T13:12:10.627Z,27.75
2022-10-18T13:15:20.540Z,28.02
2022-10-18T13:17:57.452Z,28.09
2022-10-18T13:21:17.805Z,28.60
2022-10-18T13:24:26.227Z,28.82
2022-10-18T13:27:34.847Z,28.90
2022-10-18T13:30:30.054Z,29.08
2022-10-18T13:33:35.154Z,29.19
2022-10-18T13:36:23.596Z,29.20
2022-10-18T13:38:55.545Z,29.45
2022-10-18T13:41:28.342Z,29.55
2022-10-18T13:44:30.510Z,29.41
2022-10-18T13:46:58.271Z,29.59
2022-10-18T13:50:08.152Z,29.92
2022-10-18T13:53:16.175Z,29.96
2022-10-18T13:56:22.021Z,30.08
2022-10-18T13:59:15.125Z,30.50
2022-10-18T14:02:30.701Z,30.68
2022-10-18T14:05:29.391Z,30.83
2022-10-18T14:08:12.844Z,30.86
2022-10-18T14:11:11.133Z,31.08
2022-10-18T14:13:56.419Z,31.29
2022-10-18T14:16:55.006Z,31.36
2022-10-18T14:19:47.908Z,31.56
2022-10-18T14:22:26.973Z,31.66
2022-10-18T14:24:57.969Z,31.76
2022-10-18T14:27:29.262Z,31.85
2022-10-18T14:30:20.585Z,31.92
2022-10-18T14:32:56.399Z,31.95
2022-10-18T14:35:33.221Z,32.02
2022-10-18T14:38:02.576Z,32.08
2022-10-18T14:40:38.991Z,32.20
2022-10-18T14:43:15.873Z,32.27
2022-10-18T14:45:43.749Z,32.37
2022-10-18T14:48:17.123Z,32.47
2022-10-18T14:50:59.183Z,32.58
2022-10-18T14:53:40.186Z,32.64
2022-10-18T14:56:19.641Z,32.67
2022-10-18T14:58:47.573Z,32.67
2022-10-18T15:01:20.275Z,32.61
2022-10-18T15:03:49.165Z,32.33
2022-10-18T15:06:20.628Z,31.65
2022-10-18T15:08:56.353Z,30.73
2022-10-18T15:11:25.917Z,29.64
2022-10-18T15:14:06.896Z,28.41
2022-10-18T15:16:38.404Z,27.29
2022-10-18T15:19:28.483Z,26.25
2022-10-18T15:22:30.892Z,25.16
2022-10-18T15:25:32.083Z,24.09
2022-10-18T15:28:01.416Z,23.39
2022-10-18T15:30:36.315Z,22.76
2022-10-18T15:33:10.124Z,22.21
2022-10-18T15:35:41.244Z,21.75
2022-10-18T15:38:25.209Z,21.27
2022-10-18T15:40:54.217Z,20.91
2022-10-18T15:43:24.619Z,20.58
2022-10-18T15:45:55.007Z,20.27
2022-10-18T15:48:40.232Z,19.99
2022-10-18T15:51:49.917Z,19.72
2022-10-18T15:54:29.591Z,19.46
2022-10-18T15:56:57.522Z,19.27
2022-10-18T15:59:32.162Z,19.10
2022-10-18T16:01:59.932Z,18.96
2022-10-18T16:04:32.521Z,18.83
2022-10-18T16:07:00.805Z,18.74
2022-10-18T16:09:29.364Z,18.67
2022-10-18T16:11:58.296Z,18.61
2022-10-18T16:14:26.922Z,18.58
2022-10-18T16:17:03.032Z,18.56
2022-10-18T16:19:32.247Z,18.51
2022-10-18T16:22:06.137Z,18.48
2022-10-18T16:24:34.072Z,18.45
2022-10-18T16:27:01.782Z,18.38
2022-10-18T16:29:32.127Z,18.31
2022-10-18T16:32:01.208Z,18.24
2022-10-18T16:34:32.140Z,18.17
2022-10-18T16:36:59.950Z,18.13
2022-10-18T16:39:28.501Z,18.09
2022-10-18T16:41:56.389Z,18.07
2022-10-18T16:44:23.858Z,18.05
2022-10-18T16:46:53.991Z,18.01
2022-10-18T16:49:26.756Z,17.97
2022-10-18T16:51:55.164Z,17.93
2022-10-18T16:54:23.608Z,17.93
2022-10-18T16:56:51.373Z,17.94
2022-10-18T16:59:29.160Z,17.93
2022-10-18T17:01:57.491Z,17.94
2022-10-18T17:04:25.248Z,17.89
2022-10-18T17:06:57.359Z,17.88
2022-10-18T17:09:25.666Z,17.85
2022-10-18T17:11:53.660Z,17.78
2022-10-18T17:14:21.212Z,17.70
2022-10-18T17:16:53.080Z,17.63
2022-10-18T17:19:23.549Z,17.56
2022-10-18T17:21:51.330Z,17.53
2022-10-18T17:24:18.750Z,17.49
2022-10-18T17:26:46.505Z,17.43
2022-10-18T17:29:14.211Z,17.36
2022-10-18T17:31:42.059Z,17.33
2022-10-18T17:34:09.584Z,17.30
2022-10-18T17:36:38.710Z,17.28
2022-10-18T17:39:06.277Z,17.26
2022-10-18T17:41:34.001Z,17.24
2022-10-18T17:44:06.402Z,17.23
2022-10-18T17:46:34.254Z,17.23
2022-10-18T17:49:01.686Z,17.22
2022-10-18T17:51:29.542Z,17.22
2022-10-18T17:53:57.042Z,17.22
2022-10-18T17:56:27.120Z,17.23
2022-10-18T17:58:54.611Z,17.26
2022-10-18T18:01:23.554Z,17.22
2022-10-18T18:03:57.485Z,17.24
2022-10-18T18:06:39.079Z,17.24
2022-10-18T18:09:13.881Z,17.27
2022-10-18T18:11:44.007Z,17.29
2022-10-18T18:14:12.482Z,17.27
2022-10-18T18:16:44.143Z,17.29
2022-10-18T18:19:12.611Z,17.30
2022-10-18T18:21:42.671Z,17.34
2022-10-18T18:24:11.471Z,17.33
2022-10-18T18:26:40.718Z,17.33
2022-10-18T18:29:08.501Z,17.34
2022-10-18T18:31:40.092Z,17.34
2022-10-18T18:34:10.411Z,17.35
2022-10-18T18:36:38.425Z,17.35
2022-10-18T18:39:06.833Z,17.33
2022-10-18T18:41:35.033Z,17.29
2022-10-18T18:44:05.704Z,17.27
2022-10-18T18:46:38.639Z,17.22
2022-10-18T18:49:08.077Z,17.22
2022-10-18T18:51:40.579Z,17.17
2022-10-18T18:54:10.174Z,17.14
2022-10-18T18:56:38.684Z,17.11
2022-10-18T18:59:06.949Z,17.07
2022-10-18T19:01:37.775Z,17.04
2022-10-18T19:04:07.444Z,16.99
2022-10-18T19:06:39.760Z,16.96
2022-10-18T19:09:19.315Z,16.94
2022-10-18T19:11:50.754Z,16.89
2022-10-18T19:16:59.077Z,16.81
2022-10-18T19:19:29.665Z,16.81
2022-10-18T19:22:01.054Z,16.80
2022-10-18T19:24:30.612Z,16.79
2022-10-18T19:27:40.052Z,16.79
2022-10-18T19:30:16.042Z,16.78
2022-10-18T19:32:44.043Z,16.80
2022-10-18T19:35:11.618Z,16.83
2022-10-18T19:37:39.469Z,16.86
2022-10-18T19:40:07.837Z,16.88
2022-10-18T19:42:37.444Z,16.92
2022-10-18T19:45:05.762Z,16.91
2022-10-18T19:47:33.909Z,16.88
2022-10-18T19:50:02.097Z,16.85
2022-10-18T19:52:29.948Z,16.82
2022-10-18T19:54:57.539Z,16.80
2022-10-18T19:57:25.620Z,16.78
2022-10-18T19:59:54.382Z,16.77
2022-10-18T20:02:24.090Z,16.78
2022-10-18T20:04:51.663Z,16.75
2022-10-18T20:07:19.432Z,16.72
2022-10-18T20:09:48.057Z,16.68
2022-10-18T20:12:15.792Z,16.64
2022-10-18T20:15:02.138Z,16.59
2022-10-18T20:18:26.270Z,16.55
2022-10-18T20:21:40.160Z,16.49
2022-10-18T20:24:09.479Z,16.42
2022-10-18T20:26:37.132Z,16.41
2022-10-18T20:29:05.633Z,16.39
2022-10-18T20:31:37.219Z,16.37
2022-10-18T20:34:13.611Z,16.34
2022-10-18T20:36:43.502Z,16.34
2022-10-18T20:39:11.327Z,16.35
2022-10-18T20:41:41.414Z,16.39
2022-10-18T20:44:16.014Z,16.40
2022-10-18T20:46:44.668Z,16.43
2022-10-18T20:49:15.604Z,16.43
2022-10-18T20:51:43.559Z,16.41
2022-10-18T20:54:12.720Z,16.42
2022-10-18T20:56:40.315Z,16.42
2022-10-18T20:59:10.106Z,16.43
2022-10-18T21:01:39.276Z,16.44
2022-10-18T21:04:10.223Z,16.45
2022-10-18T21:06:44.160Z,16.46
2022-10-18T21:09:18.933Z,16.48
2022-10-18T21:11:50.324Z,16.48
2022-10-18T21:14:22.406Z,16.45
2022-10-18T21:16:52.854Z,16.45
2022-10-18T21:19:41.769Z,16.43
2022-10-18T21:22:09.892Z,16.41
2022-10-18T21:24:45.932Z,16.40
2022-10-18T21:28:33.612Z,16.30
2022-10-18T21:31:19.468Z,16.18
2022-10-18T21:33:47.682Z,16.08
2022-10-18T21:36:15.981Z,15.99
2022-10-18T21:38:46.792Z,15.91
2022-10-18T21:41:17.597Z,15.87
2022-10-18T21:43:48.706Z,15.86
2022-10-18T21:46:18.373Z,15.85
2022-10-18T21:48:47.882Z,15.84
2022-10-18T21:51:19.463Z,15.78
2022-10-18T21:57:25.838Z,15.73
2022-10-18T21:59:57.777Z,15.69
2022-10-18T22:02:32.834Z,15.65
2022-10-18T22:05:18.696Z,15.62
2022-10-18T22:07:52.625Z,15.57
2022-10-18T22:10:26.009Z,15.52
2022-10-18T22:13:15.375Z,15.49
2022-10-18T22:15:50.411Z,15.51
2022-10-18T22:18:25.339Z,15.49
2022-10-18T22:21:23.392Z,15.53
2022-10-18T22:24:05.571Z,15.52
2022-10-18T22:26:39.863Z,15.51
2022-10-18T22:29:21.047Z,15.50
2022-10-18T22:32:10.597Z,15.51
2022-10-18T22:34:40.785Z,15.50
2022-10-18T22:37:08.346Z,15.48
2022-10-18T22:39:36.057Z,15.45
2022-10-18T22:42:05.582Z,15.41
2022-10-18T22:44:36.816Z,15.35
2022-10-18T22:47:07.981Z,15.32
2022-10-18T22:49:35.761Z,15.28
2022-10-18T22:52:03.258Z,15.24
2022-10-18T22:54:32.442Z,15.18
2022-10-18T22:57:05.537Z,15.11
2022-10-18T22:59:39.453Z,15.03
2022-10-18T23:02:15.065Z,14.95
2022-10-18T23:04:51.156Z,14.88
2022-10-18T23:07:27.338Z,14.80
2022-10-18T23:10:02.148Z,14.70
2022-10-18T23:12:35.973Z,14.59
2022-10-18T23:15:12.780Z,14.48
2022-10-18T23:17:48.166Z,14.36
2022-10-18T23:20:22.706Z,14.28
2022-10-18T23:22:55.648Z,14.19
2022-10-18T23:25:32.672Z,14.13
2022-10-18T23:28:09.006Z,14.04
2022-10-18T23:30:46.286Z,13.93
2022-10-18T23:33:19.440Z,13.90
2022-10-18T23:35:57.356Z,13.87
2022-10-18T23:38:35.761Z,13.82
2022-10-18T23:41:19.664Z,13.78
2022-10-18T23:43:52.663Z,13.72
2022-10-18T23:46:28.103Z,13.68
2022-10-18T23:48:59.856Z,13.64
2022-10-18T23:51:30.010Z,13.58
2022-10-18T23:53:59.760Z,13.55
2022-10-18T23:56:31.535Z,13.50
2022-10-18T23:59:00.814Z,13.47
